Time;durP1;ratioP1;P1;durP2;ratioP2;P2;SDS_P1;SDS_P2;PMS_P1;PMS_P2;Temp;Humidity;BMP_temperature;BMP_pressure;BME280_temperature;BME280_humidity;BME280_pressure;Samples;Min_cycle;Max_cycle;Signal;HPM_P1;HPM_P2
2022/01/27 00:02:29;;;;;;;60.93;19.23;;;3.20;1.00;;;;;;5058498;28;20219;-88
2022/01/27 00:05:09;;;;;;;62.63;18.43;;;3.30;1.00;;;;;;5056344;28;20189;-86
2022/01/27 00:07:36;;;;;;;59.37;18.10;;;3.20;1.00;;;;;;5056025;28;20265;-85
2022/01/27 00:10:14;;;;;;;67.20;18.47;;;3.20;1.00;;;;;;5054990;28;20286;-84
2022/01/27 00:12:43;;;;;;;64.40;18.53;;;3.20;1.00;;;;;;5057329;28;20188;-85
2022/01/27 00:15:12;;;;;;;60.27;19.40;;;3.20;1.00;;;;;;5057578;28;20286;-84
2022/01/27 00:17:44;;;;;;;69.77;20.27;;;3.30;1.00;;;;;;5057594;28;20192;-86
2022/01/27 00:20:12;;;;;;;66.33;20.27;;;3.30;1.00;;;;;;5056117;28;20207;-85
2022/01/27 00:22:39;;;;;;;58.10;18.50;;;3.20;1.00;;;;;;5055081;28;20193;-85
2022/01/27 00:25:07;;;;;;;67.70;19.63;;;3.30;1.00;;;;;;5056678;28;20200;-85
2022/01/27 00:27:34;;;;;;;66.03;20.43;;;3.30;1.00;;;;;;5055151;28;20241;-85
2022/01/27 00:30:04;;;;;;;64.43;19.47;;;3.30;1.00;;;;;;5054861;28;20230;-85
2022/01/27 00:32:31;;;;;;;69.70;20.60;;;3.30;1.00;;;;;;5058286;28;20174;-84
2022/01/27 00:34:59;;;;;;;66.77;20.13;;;3.30;1.00;;;;;;5058735;28;20652;-85
2022/01/27 00:37:27;;;;;;;75.87;21.67;;;3.30;1.00;;;;;;5057751;28;20200;-88
2022/01/27 00:39:54;;;;;;;69.43;20.57;;;3.30;1.00;;;;;;5058403;28;20248;-87
2022/01/27 00:42:22;;;;;;;73.23;22.00;;;3.30;1.00;;;;;;5057002;28;20250;-86
2022/01/27 00:44:50;;;;;;;67.03;20.40;;;3.30;1.00;;;;;;5058268;28;20195;-88
2022/01/27 00:47:18;;;;;;;66.87;20.23;;;3.30;1.00;;;;;;5055221;28;20203;-85
2022/01/27 00:49:45;;;;;;;65.87;20.20;;;3.30;1.00;;;;;;5057977;28;20223;-85
2022/01/27 00:52:16;;;;;;;67.67;20.23;;;3.30;1.00;;;;;;5057698;28;20224;-84
2022/01/27 00:54:44;;;;;;;62.50;20.27;;;3.30;1.00;;;;;;5058068;28;20195;-87
2022/01/27 00:57:17;;;;;;;62.90;20.30;;;3.30;1.00;;;;;;5054751;28;20211;-85
2022/01/27 00:59:53;;;;;;;68.07;19.57;;;3.30;1.00;;;;;;5055146;28;20252;-85
2022/01/27 01:02:33;;;;;;;62.87;19.70;;;3.30;1.00;;;;;;5056002;28;20663;-86
2022/01/27 01:05:13;;;;;;;64.40;19.40;;;3.30;1.00;;;;;;5056807;28;20197;-87
2022/01/27 01:07:42;;;;;;;65.23;21.37;;;3.30;1.00;;;;;;5055831;28;20213;-87
2022/01/27 01:15:51;;;;;;;55.77;18.60;;;3.30;1.00;;;;;;5042546;28;20202;-86
2022/01/27 01:18:32;;;;;;;60.80;18.27;;;3.30;1.00;;;;;;5055597;28;20293;-86
2022/01/27 01:29:39;;;;;;;63.23;20.47;;;3.30;1.00;;;;;;5055657;28;20259;-87
2022/01/27 01:32:16;;;;;;;62.47;18.93;;;3.30;1.00;;;;;;5057145;28;20219;-85
2022/01/27 01:34:47;;;;;;;60.43;18.63;;;3.20;1.00;;;;;;5056236;28;20628;-88
2022/01/27 01:37:18;;;;;;;60.87;19.37;;;3.20;1.00;;;;;;5054217;28;20551;-85
2022/01/27 01:39:45;;;;;;;64.00;18.77;;;3.20;1.00;;;;;;5053644;28;20244;-85
2022/01/27 01:42:12;;;;;;;62.43;19.40;;;3.20;1.00;;;;;;5053923;28;20281;-85
2022/01/27 01:44:41;;;;;;;61.77;19.60;;;3.20;1.00;;;;;;5053538;28;20663;-85
2022/01/27 01:47:08;;;;;;;64.47;20.07;;;3.20;1.00;;;;;;5053436;28;20685;-85
2022/01/27 01:49:35;;;;;;;53.27;18.97;;;3.30;1.00;;;;;;5055224;28;20253;-85
2022/01/27 01:52:07;;;;;;;64.37;20.90;;;3.30;1.00;;;;;;5054788;28;20249;-85
2022/01/27 01:54:35;;;;;;;66.33;20.23;;;3.30;1.00;;;;;;5054237;28;20260;-84
2022/01/27 01:57:02;;;;;;;59.47;19.10;;;3.30;1.00;;;;;;5055495;28;20232;-85
2022/01/27 01:59:29;;;;;;;65.93;20.10;;;3.30;1.00;;;;;;5054664;28;20210;-85
2022/01/27 02:01:57;;;;;;;49.43;17.80;;;3.30;1.00;;;;;;5053902;28;20267;-85
2022/01/27 02:04:24;;;;;;;57.17;18.07;;;3.30;1.00;;;;;;5054997;28;20218;-85
2022/01/27 02:06:55;;;;;;;55.30;19.67;;;3.30;1.00;;;;;;5056033;28;20287;-85
2022/01/27 02:09:33;;;;;;;51.27;16.90;;;3.30;1.00;;;;;;5054405;28;20203;-87
2022/01/27 02:20:15;;;;;;;55.03;18.77;;;3.30;1.00;;;;;;5052530;28;20193;-85
2022/01/27 02:22:42;;;;;;;53.83;17.93;;;3.40;1.00;;;;;;5055041;28;20237;-85
2022/01/27 02:25:10;;;;;;;59.57;19.77;;;3.40;1.00;;;;;;5054642;28;20206;-85
2022/01/27 02:27:37;;;;;;;55.03;19.50;;;3.40;1.00;;;;;;5052740;28;20733;-85
2022/01/27 02:30:06;;;;;;;57.90;18.00;;;3.40;1.00;;;;;;5054052;28;20349;-85
2022/01/27 02:32:33;;;;;;;53.77;18.37;;;3.40;1.00;;;;;;5054675;28;20234;-85
2022/01/27 02:35:01;;;;;;;51.30;18.90;;;3.40;1.00;;;;;;5052909;28;20203;-85
2022/01/27 02:37:29;;;;;;;52.53;17.83;;;3.40;1.00;;;;;;5053861;28;20217;-85
2022/01/27 02:39:56;;;;;;;50.23;17.97;;;3.50;1.00;;;;;;5052712;28;20724;-85
2022/01/27 02:42:30;;;;;;;50.07;17.73;;;3.40;1.00;;;;;;5052868;28;20575;-85
2022/01/27 02:45:04;;;;;;;50.33;18.10;;;3.50;1.00;;;;;;5053021;28;20257;-85
2022/01/27 02:47:32;;;;;;;51.00;19.10;;;3.50;1.00;;;;;;5054167;28;20169;-86
2022/01/27 02:49:59;;;;;;;58.70;18.97;;;3.50;1.00;;;;;;5055390;28;20221;-86
2022/01/27 02:52:26;;;;;;;;;;;3.50;1.00;;;;;;5052822;28;20215;-85
2022/01/27 02:54:54;;;;;;;55.60;18.30;;;3.50;1.00;;;;;;5052595;28;20191;-86
2022/01/27 02:57:21;;;;;;;;;;;3.50;1.00;;;;;;5052745;28;20271;-84
2022/01/27 02:59:48;;;;;;;;;;;3.50;1.00;;;;;;5052393;28;20220;-83
2022/01/27 03:02:15;;;;;;;;;;;3.50;1.00;;;;;;5052652;28;20205;-85
2022/01/27 03:04:42;;;;;;;;;;;3.50;1.00;;;;;;5052453;28;20276;-85
2022/01/27 03:07:09;;;;;;;;;;;3.50;1.00;;;;;;5052038;28;20612;-85
2022/01/27 03:09:36;;;;;;;;;;;3.40;1.00;;;;;;5051455;28;20646;-85
2022/01/27 03:12:06;;;;;;;;;;;3.50;1.00;;;;;;5050659;28;20239;-85
2022/01/27 03:14:33;;;;;;;;;;;3.40;1.00;;;;;;5050461;28;20199;-85
2022/01/27 03:17:01;;;;;;;;;;;3.50;1.00;;;;;;5050132;28;20186;-84
2022/01/27 03:19:28;;;;;;;;;;;3.40;1.00;;;;;;5050504;28;20619;-85
2022/01/27 03:21:55;;;;;;;;;;;3.40;1.00;;;;;;5050059;28;20180;-85
2022/01/27 03:24:22;;;;;;;;;;;3.40;1.00;;;;;;5050074;28;20194;-85
2022/01/27 03:26:49;;;;;;;;;;;3.50;1.00;;;;;;5050356;28;20197;-85
2022/01/27 03:29:18;;;;;;;;;;;3.50;1.00;;;;;;5050090;28;20174;-85
2022/01/27 03:31:45;;;;;;;;;;;3.50;1.00;;;;;;5051489;28;20157;-86
2022/01/27 03:34:12;;;;;;;;;;;3.50;1.00;;;;;;5057280;28;20718;-86
2022/01/27 03:36:39;;;;;;;;;;;3.50;1.00;;;;;;5059636;28;20199;-87
2022/01/27 03:39:05;;;;;;;;;;;3.50;1.00;;;;;;5061016;28;20173;-84
2022/01/27 03:41:34;;;;;;;;;;;3.60;1.00;;;;;;5060336;28;20081;-85
2022/01/27 03:44:01;;;;;;;;;;;3.60;1.00;;;;;;5056314;28;20205;-85
2022/01/27 03:46:29;;;;;;;;;;;3.60;1.00;;;;;;5059056;28;20214;-85
2022/01/27 03:48:56;;;;;;;;;;;3.60;1.00;;;;;;5061180;28;20782;-84
2022/01/27 03:51:23;;;;;;;;;;;3.60;1.00;;;;;;5059537;28;20287;-84
2022/01/27 03:53:50;;;;;;;;;;;3.60;1.00;;;;;;5057984;28;20769;-84
2022/01/27 03:56:17;;;;;;;;;;;3.60;1.00;;;;;;5057210;28;20212;-84
2022/01/27 03:58:43;;;;;;;;;;;3.60;1.00;;;;;;5055570;28;25063;-84
2022/01/27 04:01:10;;;;;;;;;;;3.60;1.00;;;;;;5056509;28;20231;-85
2022/01/27 04:03:38;;;;;;;;;;;3.60;1.00;;;;;;5054634;28;20249;-85
2022/01/27 04:06:07;;;;;;;;;;;3.60;1.00;;;;;;5055450;28;20095;-85
2022/01/27 04:08:36;;;;;;;;;;;3.60;1.00;;;;;;5055010;28;20209;-87
2022/01/27 04:11:03;;;;;;;;;;;3.60;1.00;;;;;;5054804;28;20244;-88
2022/01/27 04:13:29;;;;;;;;;;;3.60;1.00;;;;;;5055631;28;20162;-85
2022/01/27 04:15:56;;;;;;;;;;;3.60;1.00;;;;;;5055119;28;20204;-84
2022/01/27 04:18:24;;;;;;;;;;;3.60;1.00;;;;;;5054758;28;20055;-87
2022/01/27 04:20:53;;;;;;;;;;;3.60;1.00;;;;;;5055616;28;20184;-87
2022/01/27 04:23:19;;;;;;;;;;;3.50;1.00;;;;;;5055202;28;20622;-84
2022/01/27 04:25:46;;;;;;;;;;;3.50;1.00;;;;;;5053774;28;20248;-85
2022/01/27 04:28:18;;;;;;;;;;;3.50;1.00;;;;;;5053249;28;20197;-88
2022/01/27 04:30:45;;;;;;;;;;;3.50;1.00;;;;;;5054218;28;20559;-85
2022/01/27 04:33:12;;;;;;;;;;;3.50;1.00;;;;;;5054742;28;20201;-85
2022/01/27 04:35:44;;;;;;;;;;;3.40;1.00;;;;;;5054830;28;25143;-87
2022/01/27 04:38:30;;;;;;;;;;;3.40;1.00;;;;;;5055025;28;20258;-85
2022/01/27 04:41:05;;;;;;;;;;;3.40;1.00;;;;;;5054910;28;20069;-85
2022/01/27 04:43:38;;;;;;;;;;;3.40;1.00;;;;;;5054351;28;20294;-85
2022/01/27 04:46:15;;;;;;;;;;;3.40;1.00;;;;;;5054384;28;20228;-85
2022/01/27 04:48:45;;;;;;;;;;;3.40;1.00;;;;;;5053275;28;20181;-85
2022/01/27 04:51:15;;;;;;;;;;;3.40;1.00;;;;;;5053316;28;20219;-85
2022/01/27 04:53:48;;;;;;;;;;;3.40;1.00;;;;;;5054439;28;20056;-85
2022/01/27 04:56:16;;;;;;;;;;;3.30;1.00;;;;;;5054982;28;20281;-85
2022/01/27 04:58:46;;;;;;;;;;;3.30;6.10;;;;;;5054528;28;20653;-85
2022/01/27 05:01:13;;;;;;;;;;;3.30;8.10;;;;;;5055390;28;20191;-85
2022/01/27 05:03:44;;;;;;;;;;;3.30;10.70;;;;;;5055114;28;20229;-85
2022/01/27 05:06:11;;;;;;;;;;;3.30;16.40;;;;;;5054246;28;25138;-85
2022/01/27 05:08:38;;;;;;;;;;;3.30;21.30;;;;;;5055033;28;20106;-85
2022/01/27 05:11:12;;;;;;;;;;;3.30;23.90;;;;;;5054535;28;20293;-85
2022/01/27 05:13:47;;;;;;;;;;;3.30;24.80;;;;;;5054614;28;25157;-87
2022/01/27 05:16:14;;;;;;;;;;;3.30;26.30;;;;;;5054951;28;20162;-87
2022/01/27 05:18:40;;;;;;;;;;;3.30;29.00;;;;;;5054722;28;20061;-85
2022/01/27 05:21:07;;;;;;;;;;;3.30;33.70;;;;;;5052990;28;20230;-86
2022/01/27 05:23:34;;;;;;;;;;;3.30;41.40;;;;;;5054304;28;25135;-85
2022/01/27 05:26:01;;;;;;;;;;;3.30;49.90;;;;;;5054074;28;20119;-86
2022/01/27 05:28:29;;;;;;;;;;;3.30;54.00;;;;;;5054692;28;20602;-88
2022/01/27 05:30:57;;;;;;;;;;;3.30;54.00;;;;;;5054588;28;20820;-87
2022/01/27 05:33:24;;;;;;;;;;;3.30;57.60;;;;;;5054252;28;25096;-88
2022/01/27 05:35:51;;;;;;;;;;;3.30;60.90;;;;;;5055249;28;20119;-88
2022/01/27 05:38:18;;;;;;;;;;;3.30;68.00;;;;;;5055733;28;20087;-87
2022/01/27 05:40:57;;;;;;;;;;;3.30;76.20;;;;;;5055014;28;20260;-88
2022/01/27 05:43:24;;;;;;;;;;;3.20;89.60;;;;;;5070363;28;20241;-88
2022/01/27 05:45:52;;;;;;;;;;;3.20;92.30;;;;;;5073406;28;20148;-87
2022/01/27 05:48:19;;;;;;;;;;;3.20;96.50;;;;;;5072806;28;25077;-87
2022/01/27 05:50:46;;;;;;;;;;;3.20;99.00;;;;;;5074306;28;20447;-88
2022/01/27 05:53:13;;;;;;;;;;;3.20;99.90;;;;;;5073615;28;20592;-88
2022/01/27 05:55:39;;;;;;;;;;;3.20;99.90;;;;;;5074051;28;20151;-86
2022/01/27 05:58:09;;;;;;;;;;;3.20;99.90;;;;;;5074981;28;20655;-88
2022/01/27 06:00:36;;;;;;;;;;;3.20;99.90;;;;;;5076379;28;20194;-88
2022/01/27 06:03:04;;;;;;;;;;;3.20;99.90;;;;;;5074918;28;20238;-88
2022/01/27 06:05:31;;;;;;;;;;;3.20;99.90;;;;;;5074633;28;20067;-89
2022/01/27 06:07:58;;;;;;;;;;;3.20;99.90;;;;;;5074139;28;20147;-90
2022/01/27 06:10:25;;;;;;;;;;;3.20;99.90;;;;;;5070807;28;20259;-87
2022/01/27 06:12:53;;;;;;;;;;;3.20;99.90;;;;;;5073414;28;20217;-87
2022/01/27 06:15:20;;;;;;;;;;;3.20;99.90;;;;;;5073705;28;20222;-89
2022/01/27 06:17:47;;;;;;;;;;;3.20;99.90;;;;;;5073652;28;20538;-86
2022/01/27 06:20:17;;;;;;;;;;;3.20;99.90;;;;;;5073472;28;20231;-89
2022/01/27 06:22:44;;;;;;;;;;;3.30;99.90;;;;;;5073688;28;20227;-87
2022/01/27 06:25:11;;;;;;;;;;;3.30;99.90;;;;;;5073440;28;25148;-87
2022/01/27 06:27:40;;;;;;;;;;;3.30;99.90;;;;;;5073339;28;20094;-87
2022/01/27 06:30:08;;;;;;;;;;;3.30;99.90;;;;;;5072723;28;20147;-87
2022/01/27 06:32:35;;;;;;;;;;;3.30;99.90;;;;;;5072705;28;20083;-88
2022/01/27 06:35:03;;;;;;;;;;;3.30;99.90;;;;;;5073009;28;20196;-86
2022/01/27 06:37:32;;;;;;;;;;;3.30;99.90;;;;;;5072748;28;25161;-87
2022/01/27 06:39:59;;;;;;;;;;;3.30;99.90;;;;;;5072123;28;20662;-89
2022/01/27 06:42:27;;;;;;;;;;;3.30;99.90;;;;;;5071937;28;20058;-87
2022/01/27 06:44:54;;;;;;;;;;;3.30;99.90;;;;;;5070669;28;20197;-86
2022/01/27 06:47:21;;;;;;;;;;;3.30;99.90;;;;;;5070897;28;20196;-87
2022/01/27 06:49:51;;;;;;;;;;;3.20;99.90;;;;;;5070291;28;20051;-89
2022/01/27 06:52:41;;;;;;;;;;;3.30;99.90;;;;;;5070680;28;20305;-88
2022/01/27 06:55:29;;;;;;;;;;;3.30;99.90;;;;;;5071463;28;20234;-87
2022/01/27 06:58:36;;;;;;;;;;;3.30;99.90;;;;;;5069248;28;20564;-88
2022/01/27 07:01:44;;;;;;;;;;;;;;;;;;;;;
2022/01/27 07:04:27;;;;;;;;;;;3.30;99.90;;;;;;5069613;28;20210;-88
2022/01/27 07:15:50;;;;;;;;;;;3.30;99.90;;;;;;5069846;28;20285;-89
2022/01/27 07:18:49;;;;;;;;;;;3.40;99.90;;;;;;5037722;28;20669;-90
2022/01/27 07:24:39;;;;;;;;;;;3.40;99.90;;;;;;4992464;28;20282;-89
2022/01/27 07:33:48;;;;;;;;;;;3.40;99.90;;;;;;5077619;28;20755;-91
2022/01/27 07:36:31;;;;;;;;;;;3.40;99.90;;;;;;5077953;28;20229;-89
2022/01/27 07:45:01;;;;;;;;;;;3.40;99.90;;;;;;5079680;28;20181;-91
2022/01/27 07:47:28;;;;;;;;;;;3.40;99.90;;;;;;5080563;28;20615;-88
2022/01/27 07:49:55;;;;;;;;;;;3.40;99.90;;;;;;5081037;28;20398;-87
2022/01/27 07:52:22;;;;;;;;;;;3.40;99.90;;;;;;5080559;28;20215;-87
2022/01/27 07:54:49;;;;;;;;;;;3.40;99.90;;;;;;5071520;28;20219;-87
2022/01/27 07:57:16;;;;;;;;;;;3.40;99.90;;;;;;5072215;28;20241;-87
2022/01/27 07:59:43;;;;;;;14.80;8.10;;;3.40;99.90;;;;;;5072679;28;20496;-88
2022/01/27 08:02:12;;;;;;;;;;;3.40;99.90;;;;;;5073134;28;20189;-87
2022/01/27 08:04:39;;;;;;;14.30;8.40;;;3.40;99.90;;;;;;5077007;28;20221;-89
2022/01/27 08:07:10;;;;;;;;;;;3.50;99.90;;;;;;5084530;28;20637;-92
2022/01/27 08:09:38;;;;;;;15.50;8.10;;;3.50;99.90;;;;;;5083706;28;20294;-90
2022/01/27 08:12:08;;;;;;;17.83;9.53;;;3.50;99.90;;;;;;5084871;28;20199;-92
2022/01/27 08:14:48;;;;;;;22.00;11.20;;;3.50;99.90;;;;;;5086963;28;20222;-91
2022/01/27 08:17:41;;;;;;;16.53;8.83;;;3.50;99.90;;;;;;5072175;28;20210;-90
2022/01/27 08:20:18;;;;;;;16.80;9.00;;;3.50;99.90;;;;;;5079697;28;20210;-92
2022/01/27 08:22:57;;;;;;;;;;;3.50;99.90;;;;;;5067695;28;20217;-91
2022/01/27 08:25:25;;;;;;;20.20;9.30;;;3.60;99.90;;;;;;5062644;28;20623;-88
2022/01/27 08:27:55;;;;;;;;;;;3.60;99.90;;;;;;5069399;28;20255;-88
2022/01/27 08:30:26;;;;;;;15.20;9.40;;;3.60;99.90;;;;;;5075702;28;20216;-88
2022/01/27 08:32:59;;;;;;;;;;;3.60;99.90;;;;;;5075377;28;20215;-88
2022/01/27 08:35:42;;;;;;;15.95;8.70;;;3.60;99.90;;;;;;5090873;28;20217;-89
2022/01/27 08:38:09;;;;;;;21.90;11.25;;;3.60;99.90;;;;;;5085769;28;20217;-91
2022/01/27 08:40:45;;;;;;;15.95;9.05;;;3.60;99.90;;;;;;5084401;28;20209;-89
2022/01/27 08:43:17;;;;;;;20.40;10.40;;;3.60;99.90;;;;;;5060564;28;20253;-90
2022/01/27 08:45:54;;;;;;;16.67;9.87;;;3.60;99.90;;;;;;5066667;28;20184;-90
2022/01/27 08:48:28;;;;;;;19.80;10.60;;;3.60;99.90;;;;;;5064039;28;20667;-90
2022/01/27 08:51:09;;;;;;;17.95;10.30;;;3.60;99.90;;;;;;5065075;28;20217;-90
2022/01/27 08:53:37;;;;;;;19.50;10.50;;;3.60;99.90;;;;;;5062855;28;20241;-88
2022/01/27 08:56:06;;;;;;;18.10;10.50;;;3.60;99.90;;;;;;5062912;28;20215;-88
2022/01/27 08:58:34;;;;;;;;;;;3.60;99.90;;;;;;5062425;28;20199;-88
2022/01/27 09:01:03;;;;;;;23.90;12.10;;;3.60;99.90;;;;;;5062746;28;20603;-88
2022/01/27 09:03:43;;;;;;;22.70;12.13;;;3.60;99.90;;;;;;5062019;28;20265;-93
2022/01/27 09:06:15;;;;;;;18.37;10.80;;;3.60;99.90;;;;;;5069045;28;20241;-90
2022/01/27 09:09:01;;;;;;;25.73;12.97;;;3.60;99.90;;;;;;5076719;28;20213;-88
2022/01/27 09:11:46;;;;;;;22.77;11.57;;;3.60;99.90;;;;;;5068088;28;20610;-90
2022/01/27 09:14:16;;;;;;;23.43;12.37;;;3.60;99.90;;;;;;5063282;28;20308;-90
2022/01/27 09:16:51;;;;;;;28.65;13.10;;;3.60;99.90;;;;;;5061322;28;20230;-88
2022/01/27 09:19:25;;;;;;;25.10;13.40;;;3.60;99.90;;;;;;5062135;28;20212;-89
2022/01/27 09:21:54;;;;;;;;;;;3.60;99.90;;;;;;5058596;28;20210;-89
2022/01/27 09:24:37;;;;;;;;;;;3.60;99.90;;;;;;5059816;28;20132;-91
2022/01/27 09:27:16;;;;;;;;;;;3.60;99.90;;;;;;5061631;28;20285;-88
2022/01/27 09:29:42;;;;;;;;;;;3.60;99.90;;;;;;5062450;28;20081;-89
2022/01/27 09:32:09;;;;;;;;;;;3.70;99.90;;;;;;5058062;28;20061;-88
2022/01/27 09:34:42;;;;;;;;;;;3.70;99.90;;;;;;5061164;28;20076;-87
2022/01/27 09:37:09;;;;;;;;;;;3.70;99.90;;;;;;5062282;28;20499;-88
2022/01/27 09:39:36;;;;;;;;;;;3.70;99.90;;;;;;5074250;28;19959;-91
2022/01/27 09:42:07;;;;;;;;;;;3.70;99.90;;;;;;5082323;28;19979;-86
2022/01/27 09:44:41;;;;;;;;;;;3.70;99.90;;;;;;5081443;28;19975;-88
2022/01/27 09:47:17;;;;;;;;;;;3.70;99.90;;;;;;5081460;28;19967;-88
2022/01/27 09:49:54;;;;;;;;;;;3.70;99.90;;;;;;5081386;28;20413;-89
2022/01/27 09:52:29;;;;;;;;;;;3.70;99.90;;;;;;5083223;28;19959;-88
2022/01/27 09:55:04;;;;;;;;;;;3.70;99.90;;;;;;5083499;28;19954;-90
2022/01/27 09:57:31;;;;;;;;;;;3.70;99.90;;;;;;5082604;28;19975;-87
2022/01/27 09:59:58;;;;;;;;;;;3.70;99.90;;;;;;5087064;28;19971;-90
2022/01/27 10:02:32;;;;;;;;;;;3.70;99.90;;;;;;5080041;28;19945;-89
2022/01/27 10:05:07;;;;;;;;;;;3.70;99.90;;;;;;5064884;28;20037;-90
2022/01/27 10:07:41;;;;;;;;;;;3.70;99.90;;;;;;5061058;28;20032;-91
2022/01/27 10:10:10;;;;;;;;;;;3.70;99.90;;;;;;5062477;28;19993;-91
2022/01/27 10:12:47;;;;;;;;;;;3.70;99.90;;;;;;5061369;28;19959;-89
2022/01/27 10:15:19;;;;;;;;;;;3.70;99.90;;;;;;5060737;28;19980;-90
2022/01/27 10:18:01;;;;;;;;;;;3.70;99.90;;;;;;5061290;28;19977;-91
2022/01/27 10:20:35;;;;;;;;;;;3.70;99.90;;;;;;5059431;28;20081;-90
2022/01/27 10:23:18;;;;;;;;;;;3.80;99.90;;;;;;5079816;28;19969;-89
2022/01/27 10:25:49;;;;;;;;;;;3.80;99.90;;;;;;5082123;28;20071;-88
2022/01/27 10:28:27;;;;;;;;;;;3.80;99.90;;;;;;5083121;28;20399;-90
2022/01/27 10:31:00;;;;;;;;;;;3.80;99.90;;;;;;5077990;28;19962;-89
2022/01/27 10:33:43;;;;;;;;;;;3.80;99.90;;;;;;5082897;28;20057;-90
2022/01/27 10:36:23;;;;;;;;;;;3.80;99.90;;;;;;5080596;28;20376;-86
2022/01/27 10:39:01;;;;;;;;;;;3.80;99.90;;;;;;5068241;28;19969;-87
2022/01/27 10:41:29;;;;;;;;;;;3.80;99.90;;;;;;5060794;28;19967;-87
2022/01/27 10:44:07;;;;;;;;;;;3.80;99.90;;;;;;5060684;28;19951;-90
2022/01/27 10:46:46;;;;;;;;;;;3.80;99.90;;;;;;5061832;28;20340;-91
2022/01/27 10:49:25;;;;;;;;;;;3.80;99.90;;;;;;5061222;28;20432;-88
2022/01/27 10:51:57;;;;;;;;;;;3.80;99.90;;;;;;5058305;28;19967;-90
2022/01/27 10:54:34;;;;;;;;;;;3.80;99.90;;;;;;5061054;28;19963;-88
2022/01/27 10:57:05;;;;;;;;;;;3.80;99.90;;;;;;5062125;28;20332;-91
2022/01/27 10:59:35;;;;;;;;;;;3.80;99.90;;;;;;5063904;28;19973;-88
2022/01/27 11:02:11;;;;;;;;;;;3.80;99.90;;;;;;5060584;28;19966;-87
2022/01/27 11:04:47;;;;;;;;;;;3.80;99.90;;;;;;5062009;28;19974;-88
2022/01/27 11:07:20;;;;;;;;;;;3.90;99.90;;;;;;5061404;28;20498;-89
2022/01/27 11:09:48;;;;;;;;;;;3.90;99.90;;;;;;5061914;28;19962;-86
2022/01/27 11:12:17;;;;;;;;;;;3.90;99.90;;;;;;5062449;28;19966;-90
2022/01/27 11:14:56;;;;;;;;;;;3.90;99.90;;;;;;5065412;28;20019;-92
2022/01/27 11:17:35;;;;;;;;;;;3.90;99.90;;;;;;5061966;28;20372;-91
2022/01/27 11:20:26;;;;;;;;;;;3.90;99.90;;;;;;5061890;28;19970;-91
2022/01/27 11:23:35;;;;;;;;;;;4.00;99.90;;;;;;5058999;28;20358;-91
2022/01/27 11:26:09;;;;;;;;;;;4.00;99.90;;;;;;5065868;28;19961;-88
2022/01/27 11:28:55;;;;;;;;;;;3.90;99.90;;;;;;5069807;28;20030;-92
2022/01/27 11:31:53;;;;;;;;;;;3.90;99.90;;;;;;5061640;28;19967;-88
2022/01/27 11:34:21;;;;;;;;;;;3.90;99.90;;;;;;5056639;28;20005;-89
2022/01/27 11:37:01;;;;;;;;;;;3.90;99.90;;;;;;5064506;28;19962;-90
2022/01/27 11:39:51;;;;;;;;;;;3.90;99.90;;;;;;5064280;28;19966;-90
2022/01/27 11:42:21;;;;;;;;;;;4.00;99.90;;;;;;5065222;28;19963;-92
2022/01/27 11:44:48;;;;;;;;;;;4.00;99.90;;;;;;5063379;28;19950;-89
2022/01/27 11:47:18;;;;;;;;;;;4.00;99.90;;;;;;5061896;28;20319;-91
2022/01/27 11:49:54;;;;;;;;;;;4.10;99.90;;;;;;5062989;28;20024;-89
2022/01/27 11:52:22;;;;;;;;;;;4.10;99.90;;;;;;5059862;28;20004;-90
2022/01/27 11:55:04;;;;;;;;;;;4.10;99.90;;;;;;5064412;28;19963;-88
2022/01/27 11:57:49;;;;;;;;;;;4.10;99.90;;;;;;5065250;28;19966;-88
2022/01/27 12:00:17;;;;;;;;;;;4.20;99.90;;;;;;5062984;28;19970;-90
2022/01/27 12:03:07;;;;;;;;;;;4.20;99.90;;;;;;5063946;28;20016;-90
2022/01/27 12:05:39;;;;;;;;;;;4.20;99.90;;;;;;5065964;28;19967;-89
2022/01/27 12:08:23;;;;;;;;;;;4.30;99.90;;;;;;5060372;28;20047;-89
2022/01/27 12:10:53;;;;;;;;;;;4.30;99.90;;;;;;5063821;28;20452;-90
2022/01/27 12:13:43;;;;;;;;;;;4.30;99.90;;;;;;5065063;28;20407;-87
2022/01/27 12:16:25;;;;;;;;;;;4.30;99.90;;;;;;5065466;28;19970;-88
2022/01/27 12:19:08;;;;;;;;;;;4.30;99.90;;;;;;5065505;28;20461;-86
2022/01/27 12:21:37;;;;;;;;;;;4.30;99.90;;;;;;5065206;28;19966;-91
2022/01/27 12:24:23;;;;;;;;;;;4.30;99.90;;;;;;5063888;28;20391;-92
2022/01/27 12:26:51;;;;;;;;;;;4.30;99.90;;;;;;5064293;28;19967;-89
2022/01/27 12:29:22;;;;;;;;;;;4.20;99.90;;;;;;5062444;28;20370;-93
2022/01/27 12:31:51;;;;;;;;;;;4.20;99.90;;;;;;5062829;28;19966;-89
2022/01/27 12:34:22;;;;;;;;;;;4.20;99.90;;;;;;5062243;28;19989;-87
2022/01/27 12:37:08;;;;;;;;;;;4.20;99.90;;;;;;5062605;28;20391;-90
2022/01/27 12:39:36;;;;;;;;;;;4.20;99.90;;;;;;5064603;28;20009;-90
2022/01/27 12:42:12;;;;;;;;;;;4.20;99.90;;;;;;5060787;28;19958;-88
2022/01/27 12:45:05;;;;;;;;;;;4.20;99.90;;;;;;5063988;28;19962;-90
2022/01/27 12:47:38;;;;;;;;;;;4.20;99.10;;;;;;5062029;28;19967;-90
2022/01/27 12:50:08;;;;;;;;;;;4.10;99.90;;;;;;5061316;28;19962;-90
2022/01/27 12:52:42;;;;;;;;;;;4.20;99.90;;;;;;5062370;28;19970;-88
2022/01/27 12:55:10;;;;;;;;;;;4.20;99.90;;;;;;5061969;28;19990;-87
2022/01/27 12:57:43;;;;;;;;;;;4.20;99.90;;;;;;5063465;28;20037;-86
2022/01/27 13:00:14;;;;;;;;;;;4.20;89.80;;;;;;5060883;28;19989;-90
2022/01/27 13:02:42;;;;;;;;;;;4.20;89.30;;;;;;5063279;28;19971;-90
2022/01/27 13:05:09;;;;;;;;;;;4.20;86.80;;;;;;5060181;28;19969;-88
2022/01/27 13:07:42;;;;;;;;;;;4.20;76.40;;;;;;5062934;28;19949;-88
2022/01/27 13:10:17;;;;;;;;;;;4.30;73.00;;;;;;5061454;28;19998;-88
2022/01/27 13:12:49;;;;;;;;;;;4.20;69.20;;;;;;5062446;28;19963;-87
2022/01/27 13:15:27;;;;;;;;;;;4.20;63.50;;;;;;5062370;28;20370;-87
2022/01/27 13:18:12;;;;;;;;;;;4.20;63.90;;;;;;5063064;28;20053;-86
2022/01/27 13:20:43;;;;;;;;;;;4.20;62.10;;;;;;5061478;28;20014;-88
2022/01/27 13:23:24;;;;;;;;;;;4.20;76.30;;;;;;5063233;28;20077;-89
2022/01/27 13:26:03;;;;;;;;;;;4.30;69.20;;;;;;5062267;28;20490;-88
2022/01/27 13:28:36;;;;;;;;;;;4.20;67.40;;;;;;5061292;28;19958;-87
2022/01/27 13:31:08;;;;;;;;;;;4.30;65.50;;;;;;5063487;28;20482;-89
2022/01/27 13:33:37;;;;;;;;;;;4.20;75.70;;;;;;5060258;28;19962;-88
2022/01/27 13:36:07;;;;;;;;;;;4.20;79.30;;;;;;5063570;28;19943;-88
2022/01/27 13:38:50;;;;;;;;;;;4.30;79.80;;;;;;5060876;28;20014;-91
2022/01/27 13:41:19;;;;;;;;;;;4.30;78.00;;;;;;5062570;28;19962;-90
2022/01/27 13:43:54;;;;;;;;;;;4.30;77.00;;;;;;5063641;28;20001;-92
2022/01/27 13:46:41;;;;;;;;;;;4.30;99.70;;;;;;5079437;28;19989;-88
2022/01/27 13:49:16;;;;;;;;;;;4.30;98.00;;;;;;5083498;28;19963;-87
2022/01/27 13:51:46;;;;;;;;;;;4.30;96.30;;;;;;5084606;28;20369;-87
2022/01/27 13:54:16;;;;;;;;;;;4.30;96.30;;;;;;5083489;28;19969;-91
2022/01/27 13:56:44;;;;;;;;;;;4.30;99.50;;;;;;5081516;28;19966;-88
2022/01/27 13:59:19;;;;;;;;;;;4.30;99.90;;;;;;5081911;28;19960;-89
2022/01/27 14:01:46;;;;;;;;;;;4.30;99.90;;;;;;5084136;28;19966;-88
2022/01/27 14:04:17;;;;;;;;;;;4.30;99.90;;;;;;5083612;28;19974;-90
2022/01/27 14:07:02;;;;;;;;;;;4.30;99.90;;;;;;5083872;28;19969;-87
2022/01/27 14:09:30;;;;;;;;;;;4.30;99.90;;;;;;5081675;28;20049;-87
2022/01/27 14:12:19;;;;;;;;;;;4.30;99.90;;;;;;5085812;28;20027;-91
2022/01/27 14:14:47;;;;;;;;;;;4.30;99.90;;;;;;5083847;28;19966;-86
2022/01/27 14:17:42;;;;;;;;;;;;;;;;;;;;;
2022/01/27 14:20:14;;;;;;;;;;;4.30;99.90;;;;;;5084151;28;19962;-89
2022/01/27 14:23:00;;;;;;;;;;;4.30;99.90;;;;;;5084556;28;19973;-87
2022/01/27 14:25:46;;;;;;;;;;;4.30;99.90;;;;;;5087122;28;19961;-86
2022/01/27 14:28:21;;;;;;;;;;;4.30;99.90;;;;;;5081928;28;19966;-90
2022/01/27 14:31:08;;;;;;;;;;;;;;;;;;;;;
2022/01/27 14:33:35;;;;;;;;;;;4.30;99.90;;;;;;5078751;28;19967;-86
2022/01/27 14:36:04;;;;;;;;;;;4.30;99.90;;;;;;5084935;28;20378;-90
2022/01/27 14:38:31;;;;;;;;;;;4.30;99.90;;;;;;5064042;28;19963;-87
2022/01/27 15:27:37;;;;;;;;;;;4.30;99.90;;;;;;4994979;28;20435;-86
2022/01/27 15:30:04;;;;;;;;;;;4.40;99.90;;;;;;5047471;28;19973;-87
2022/01/27 15:32:31;;;;;;;;;;;4.40;99.90;;;;;;5076136;28;19970;-86
2022/01/27 15:34:59;;;;;;;;;;;4.40;99.90;;;;;;5076701;28;19962;-86
2022/01/27 15:37:26;;;;;;;;;;;4.40;99.90;;;;;;5076533;28;20008;-86
2022/01/27 15:39:56;;;;;;;;;;;4.40;99.90;;;;;;5076275;28;20000;-86
2022/01/27 15:42:22;;;;;;;;;;;4.50;99.90;;;;;;5076436;28;20386;-87
2022/01/27 15:44:51;;;;;;;;;;;4.40;99.90;;;;;;5075963;28;19972;-86
2022/01/27 15:47:17;;;;;;;;;;;4.50;99.90;;;;;;5062015;28;19960;-87
2022/01/27 15:49:44;;;;;;;;;;;4.50;99.90;;;;;;5056343;28;19928;-88
2022/01/27 15:52:11;;;;;;;;;;;4.50;99.90;;;;;;5056279;28;19963;-88
2022/01/27 15:54:38;;;;;;;;;;;4.50;99.90;;;;;;5056160;28;19967;-86
2022/01/27 15:57:06;;;;;;;;;;;4.60;99.90;;;;;;5056957;28;19963;-88
2022/01/27 15:59:33;;;;;;;;;;;4.60;99.90;;;;;;5057543;28;20132;-87
2022/01/27 16:02:01;;;;;;;;;;;4.60;99.90;;;;;;5057060;28;19961;-87
2022/01/27 16:04:28;;;;;;;;;;;4.60;99.90;;;;;;5057902;28;20058;-86
2022/01/27 16:06:57;;;;;;;;;;;4.60;99.90;;;;;;5056093;28;19973;-87
2022/01/27 16:09:24;;;;;;;;;;;4.70;99.90;;;;;;5055825;28;19971;-87